sensor_id;sensor_type;location;lat;lon;timestamp;pressure;altitude;pressure_sealevel;temperature;humidity
20077;BME280;12348;42.710;23.378;2023-07-09T00:00:38;95516.41;;;18.32;100.00
20077;BME280;12348;42.710;23.378;2023-07-09T00:03:05;95502.44;;;18.34;100.00
20077;BME280;12348;42.710;23.378;2023-07-09T00:05:32;95505.63;;;18.36;100.00
20077;BME280;12348;42.710;23.378;2023-07-09T00:08:00;95509.63;;;18.38;100.00
20077;BME280;12348;42.710;23.378;2023-07-09T00:10:27;95502.31;;;18.30;100.00
20077;BME280;12348;42.710;23.378;2023-07-09T00:12:54;95504.41;;;18.25;100.00
20077;BME280;12348;42.710;23.378;2023-07-09T00:15:22;95503.91;;;18.31;100.00
20077;BME280;12348;42.710;23.378;2023-07-09T00:17:50;95503.13;;;18.22;100.00
20077;BME280;12348;42.710;23.378;2023-07-09T00:20:18;95509.13;;;18.15;100.00
20077;BME280;12348;42.710;23.378;2023-07-09T00:22:45;95503.19;;;18.13;100.00
20077;BME280;12348;42.710;23.378;2023-07-09T00:25:13;95506.56;;;18.10;100.00
20077;BME280;12348;42.710;23.378;2023-07-09T00:27:42;95504.31;;;18.12;100.00
20077;BME280;12348;42.710;23.378;2023-07-09T00:30:15;95497.16;;;17.99;100.00
20077;BME280;12348;42.710;23.378;2023-07-09T00:32:44;95502.31;;;17.92;100.00
20077;BME280;12348;42.710;23.378;2023-07-09T00:35:11;95504.09;;;17.88;100.00
20077;BME280;12348;42.710;23.378;2023-07-09T00:37:41;95507.63;;;17.88;100.00
20077;BME280;12348;42.710;23.378;2023-07-09T00:40:14;95503.34;;;17.79;100.00
20077;BME280;12348;42.710;23.378;2023-07-09T00:42:44;95510.25;;;17.67;100.00
20077;BME280;12348;42.710;23.378;2023-07-09T00:45:18;95501.00;;;17.42;100.00
20077;BME280;12348;42.710;23.378;2023-07-09T00:47:52;95502.63;;;17.17;100.00
20077;BME280;12348;42.710;23.378;2023-07-09T00:50:33;95502.03;;;16.94;100.00
20077;BME280;12348;42.710;23.378;2023-07-09T00:53:04;95507.47;;;16.86;100.00
20077;BME280;12348;42.710;23.378;2023-07-09T00:55:38;95504.41;;;16.70;100.00
20077;BME280;12348;42.710;23.378;2023-07-09T00:58:11;95502.16;;;16.55;100.00
20077;BME280;12348;42.710;23.378;2023-07-09T01:00:44;95498.31;;;16.47;100.00
20077;BME280;12348;42.710;23.378;2023-07-09T01:03:21;95502.44;;;16.36;100.00
20077;BME280;12348;42.710;23.378;2023-07-09T01:05:49;95497.44;;;16.20;100.00
20077;BME280;12348;42.710;23.378;2023-07-09T01:08:17;95498.53;;;16.02;100.00
20077;BME280;12348;42.710;23.378;2023-07-09T01:10:45;95499.44;;;15.89;100.00
20077;BME280;12348;42.710;23.378;2023-07-09T01:13:12;95503.22;;;15.79;100.00
20077;BME280;12348;42.710;23.378;2023-07-09T01:15:39;95497.75;;;15.70;100.00
20077;BME280;12348;42.710;23.378;2023-07-09T01:18:06;95500.00;;;15.68;100.00
20077;BME280;12348;42.710;23.378;2023-07-09T01:20:35;95495.75;;;15.54;100.00
20077;BME280;12348;42.710;23.378;2023-07-09T01:23:03;95492.13;;;15.36;100.00
20077;BME280;12348;42.710;23.378;2023-07-09T01:25:31;95487.94;;;15.30;100.00
20077;BME280;12348;42.710;23.378;2023-07-09T01:27:59;95487.63;;;15.31;100.00
20077;BME280;12348;42.710;23.378;2023-07-09T01:30:30;95483.44;;;15.25;100.00
20077;BME280;12348;42.710;23.378;2023-07-09T01:32:58;95483.22;;;15.13;100.00
20077;BME280;12348;42.710;23.378;2023-07-09T01:35:27;95486.03;;;15.08;100.00
20077;BME280;12348;42.710;23.378;2023-07-09T01:37:55;95490.09;;;14.96;100.00
20077;BME280;12348;42.710;23.378;2023-07-09T01:40:25;95490.53;;;14.90;100.00
20077;BME280;12348;42.710;23.378;2023-07-09T01:42:53;95489.72;;;14.89;100.00
20077;BME280;12348;42.710;23.378;2023-07-09T01:45:24;95490.28;;;14.77;100.00
20077;BME280;12348;42.710;23.378;2023-07-09T01:47:51;95499.03;;;14.74;100.00
20077;BME280;12348;42.710;23.378;2023-07-09T01:50:20;95501.63;;;14.79;100.00
20077;BME280;12348;42.710;23.378;2023-07-09T01:52:49;95502.47;;;14.66;100.00
20077;BME280;12348;42.710;23.378;2023-07-09T01:55:17;95504.50;;;14.61;100.00
20077;BME280;12348;42.710;23.378;2023-07-09T01:57:46;95509.41;;;14.59;100.00
20077;BME280;12348;42.710;23.378;2023-07-09T02:00:16;95507.91;;;14.52;100.00
20077;BME280;12348;42.710;23.378;2023-07-09T02:02:45;95501.59;;;14.57;100.00
20077;BME280;12348;42.710;23.378;2023-07-09T02:05:14;95502.59;;;14.61;100.00
20077;BME280;12348;42.710;23.378;2023-07-09T02:07:41;95506.09;;;14.48;100.00
20077;BME280;12348;42.710;23.378;2023-07-09T02:10:09;95514.84;;;14.45;100.00
20077;BME280;12348;42.710;23.378;2023-07-09T02:12:36;95515.75;;;14.40;100.00
20077;BME280;12348;42.710;23.378;2023-07-09T02:15:06;95515.75;;;14.40;100.00
20077;BME280;12348;42.710;23.378;2023-07-09T02:17:33;95510.13;;;14.37;100.00
20077;BME280;12348;42.710;23.378;2023-07-09T02:20:00;95507.97;;;14.25;100.00
20077;BME280;12348;42.710;23.378;2023-07-09T02:22:27;95503.53;;;14.15;100.00
20077;BME280;12348;42.710;23.378;2023-07-09T02:24:54;95506.66;;;14.22;100.00
20077;BME280;12348;42.710;23.378;2023-07-09T02:27:21;95503.66;;;14.24;100.00
20077;BME280;12348;42.710;23.378;2023-07-09T02:29:48;95518.19;;;14.28;100.00
20077;BME280;12348;42.710;23.378;2023-07-09T02:32:19;95522.78;;;14.41;100.00
20077;BME280;12348;42.710;23.378;2023-07-09T02:34:47;95522.22;;;14.30;100.00
20077;BME280;12348;42.710;23.378;2023-07-09T02:37:15;95522.88;;;14.36;100.00
20077;BME280;12348;42.710;23.378;2023-07-09T02:39:42;95531.53;;;14.38;100.00
20077;BME280;12348;42.710;23.378;2023-07-09T02:42:09;95527.19;;;14.37;100.00
20077;BME280;12348;42.710;23.378;2023-07-09T02:44:39;95532.63;;;14.37;100.00
20077;BME280;12348;42.710;23.378;2023-07-09T02:47:06;95534.25;;;14.38;100.00
20077;BME280;12348;42.710;23.378;2023-07-09T02:49:35;95532.22;;;14.44;100.00
20077;BME280;12348;42.710;23.378;2023-07-09T02:52:03;95540.94;;;14.41;100.00
20077;BME280;12348;42.710;23.378;2023-07-09T02:54:30;95548.06;;;14.37;100.00
20077;BME280;12348;42.710;23.378;2023-07-09T02:56:57;95545.47;;;14.45;100.00
20077;BME280;12348;42.710;23.378;2023-07-09T02:59:24;95550.88;;;14.45;100.00
20077;BME280;12348;42.710;23.378;2023-07-09T03:01:53;95548.47;;;14.44;100.00
20077;BME280;12348;42.710;23.378;2023-07-09T03:04:19;95554.88;;;14.48;100.00
20077;BME280;12348;42.710;23.378;2023-07-09T03:06:48;95559.63;;;14.42;100.00
20077;BME280;12348;42.710;23.378;2023-07-09T03:09:14;95551.47;;;14.56;100.00
20077;BME280;12348;42.710;23.378;2023-07-09T03:11:41;95558.91;;;14.64;100.00
20077;BME280;12348;42.710;23.378;2023-07-09T03:14:08;95564.22;;;14.69;100.00
20077;BME280;12348;42.710;23.378;2023-07-09T03:16:35;95559.72;;;14.65;100.00
20077;BME280;12348;42.710;23.378;2023-07-09T03:19:03;95552.25;;;14.70;100.00
20077;BME280;12348;42.710;23.378;2023-07-09T03:21:30;95557.78;;;14.79;100.00
20077;BME280;12348;42.710;23.378;2023-07-09T03:23:59;95564.06;;;14.88;100.00
20077;BME280;12348;42.710;23.378;2023-07-09T03:26:26;95564.31;;;15.00;100.00
20077;BME280;12348;42.710;23.378;2023-07-09T03:28:54;95558.34;;;15.12;100.00
20077;BME280;12348;42.710;23.378;2023-07-09T03:31:21;95558.78;;;15.28;100.00
20077;BME280;12348;42.710;23.378;2023-07-09T03:33:48;95550.84;;;15.32;100.00
20077;BME280;12348;42.710;23.378;2023-07-09T03:36:16;95564.06;;;15.56;100.00
20077;BME280;12348;42.710;23.378;2023-07-09T03:38:44;95557.78;;;16.00;100.00
20077;BME280;12348;42.710;23.378;2023-07-09T03:41:12;95553.06;;;17.06;100.00
20077;BME280;12348;42.710;23.378;2023-07-09T03:43:38;95554.81;;;18.78;100.00
20077;BME280;12348;42.710;23.378;2023-07-09T03:46:05;95565.00;;;19.85;100.00
20077;BME280;12348;42.710;23.378;2023-07-09T03:48:32;95565.84;;;21.09;97.74
20077;BME280;12348;42.710;23.378;2023-07-09T03:50:58;95560.91;;;21.54;91.09
20077;BME280;12348;42.710;23.378;2023-07-09T03:53:25;95572.63;;;22.59;87.22
20077;BME280;12348;42.710;23.378;2023-07-09T03:55:54;95572.00;;;22.97;80.61
20077;BME280;12348;42.710;23.378;2023-07-09T03:58:23;95568.53;;;23.74;78.25
20077;BME280;12348;42.710;23.378;2023-07-09T04:00:51;95575.69;;;24.94;72.61
20077;BME280;12348;42.710;23.378;2023-07-09T04:03:18;95577.13;;;25.67;67.77
20077;BME280;12348;42.710;23.378;2023-07-09T04:05:47;95586.63;;;25.39;67.90
20077;BME280;12348;42.710;23.378;2023-07-09T04:08:14;95580.81;;;25.78;66.42
20077;BME280;12348;42.710;23.378;2023-07-09T04:10:41;95589.34;;;26.00;65.29
20077;BME280;12348;42.710;23.378;2023-07-09T04:13:07;95585.25;;;25.86;66.69
20077;BME280;12348;42.710;23.378;2023-07-09T04:15:35;95591.13;;;26.19;64.86
20077;BME280;12348;42.710;23.378;2023-07-09T04:18:02;95594.00;;;26.29;64.71
20077;BME280;12348;42.710;23.378;2023-07-09T04:20:29;95591.97;;;27.12;62.14
20077;BME280;12348;42.710;23.378;2023-07-09T04:22:56;95595.00;;;27.03;61.15
20077;BME280;12348;42.710;23.378;2023-07-09T04:25:23;95599.53;;;28.02;59.48
20077;BME280;12348;42.710;23.378;2023-07-09T04:27:50;95597.88;;;27.79;59.03
20077;BME280;12348;42.710;23.378;2023-07-09T04:30:17;95598.00;;;26.80;62.60
20077;BME280;12348;42.710;23.378;2023-07-09T04:32:46;95596.22;;;24.96;68.85
20077;BME280;12348;42.710;23.378;2023-07-09T04:35:14;95595.97;;;23.16;77.21
20077;BME280;12348;42.710;23.378;2023-07-09T04:37:41;95606.16;;;21.48;86.90
20077;BME280;12348;42.710;23.378;2023-07-09T04:40:09;95611.84;;;21.03;90.51
20077;BME280;12348;42.710;23.378;2023-07-09T04:42:38;95606.72;;;20.52;95.48
20077;BME280;12348;42.710;23.378;2023-07-09T04:45:06;95598.91;;;19.72;100.00
20077;BME280;12348;42.710;23.378;2023-07-09T04:47:34;95602.72;;;20.87;97.53
20077;BME280;12348;42.710;23.378;2023-07-09T04:50:03;95596.84;;;22.09;86.79
20077;BME280;12348;42.710;23.378;2023-07-09T04:52:30;95600.94;;;21.31;90.67
20077;BME280;12348;42.710;23.378;2023-07-09T04:54:57;95598.13;;;21.15;95.29
20077;BME280;12348;42.710;23.378;2023-07-09T04:57:24;95601.34;;;23.28;84.29
20077;BME280;12348;42.710;23.378;2023-07-09T04:59:52;95600.13;;;24.03;78.07
20077;BME280;12348;42.710;23.378;2023-07-09T05:02:19;95600.63;;;25.27;73.24
20077;BME280;12348;42.710;23.378;2023-07-09T05:04:46;95602.53;;;27.65;65.68
20077;BME280;12348;42.710;23.378;2023-07-09T05:07:14;95609.56;;;28.78;61.03
20077;BME280;12348;42.710;23.378;2023-07-09T05:09:41;95609.78;;;30.64;54.71
20077;BME280;12348;42.710;23.378;2023-07-09T05:12:08;95607.41;;;32.25;49.95
20077;BME280;12348;42.710;23.378;2023-07-09T05:14:35;95610.81;;;33.41;45.90
20077;BME280;12348;42.710;23.378;2023-07-09T05:17:02;95614.66;;;33.90;43.22
20077;BME280;12348;42.710;23.378;2023-07-09T05:19:29;95616.88;;;32.62;47.71
20077;BME280;12348;42.710;23.378;2023-07-09T05:21:56;95611.88;;;33.70;44.32
20077;BME280;12348;42.710;23.378;2023-07-09T05:24:24;95613.19;;;34.06;42.64
20077;BME280;12348;42.710;23.378;2023-07-09T05:26:51;95615.84;;;34.13;42.28
20077;BME280;12348;42.710;23.378;2023-07-09T05:29:18;95608.53;;;32.00;45.98
20077;BME280;12348;42.710;23.378;2023-07-09T05:31:44;95606.28;;;30.57;51.31
20077;BME280;12348;42.710;23.378;2023-07-09T05:34:11;95606.19;;;32.26;47.39
20077;BME280;12348;42.710;23.378;2023-07-09T05:36:39;95605.56;;;32.72;47.50
20077;BME280;12348;42.710;23.378;2023-07-09T05:39:05;95594.06;;;32.94;46.14
20077;BME280;12348;42.710;23.378;2023-07-09T05:41:34;95602.31;;;34.47;42.51
20077;BME280;12348;42.710;23.378;2023-07-09T05:44:00;95606.84;;;32.95;46.10
20077;BME280;12348;42.710;23.378;2023-07-09T05:46:27;95607.44;;;33.93;43.64
20077;BME280;12348;42.710;23.378;2023-07-09T05:48:54;95609.53;;;34.97;41.92
20077;BME280;12348;42.710;23.378;2023-07-09T05:51:21;95611.28;;;35.57;39.34
20077;BME280;12348;42.710;23.378;2023-07-09T05:53:49;95601.53;;;36.20;38.66
20077;BME280;12348;42.710;23.378;2023-07-09T05:56:16;95598.66;;;35.49;39.25
20077;BME280;12348;42.710;23.378;2023-07-09T05:58:45;95598.50;;;36.39;37.86
20077;BME280;12348;42.710;23.378;2023-07-09T06:01:12;95599.22;;;37.55;33.43
20077;BME280;12348;42.710;23.378;2023-07-09T06:03:39;95599.91;;;38.47;31.09
20077;BME280;12348;42.710;23.378;2023-07-09T06:06:06;95600.00;;;39.06;31.06
20077;BME280;12348;42.710;23.378;2023-07-09T06:08:33;95600.47;;;36.81;34.64
20077;BME280;12348;42.710;23.378;2023-07-09T06:11:01;95595.84;;;36.87;34.39
20077;BME280;12348;42.710;23.378;2023-07-09T06:13:29;95599.22;;;37.55;32.66
20077;BME280;12348;42.710;23.378;2023-07-09T06:15:59;95591.59;;;36.82;33.42
20077;BME280;12348;42.710;23.378;2023-07-09T06:18:27;95588.78;;;36.82;32.92
20077;BME280;12348;42.710;23.378;2023-07-09T06:20:56;95596.41;;;37.90;31.20
20077;BME280;12348;42.710;23.378;2023-07-09T06:23:24;95592.84;;;37.76;31.59
20077;BME280;12348;42.710;23.378;2023-07-09T06:25:51;95581.91;;;36.20;32.76
20077;BME280;12348;42.710;23.378;2023-07-09T06:28:19;95593.03;;;37.12;32.59
20077;BME280;12348;42.710;23.378;2023-07-09T06:30:47;95590.25;;;36.87;32.89
20077;BME280;12348;42.710;23.378;2023-07-09T06:33:18;95583.25;;;36.40;33.27
20077;BME280;12348;42.710;23.378;2023-07-09T06:35:49;95596.06;;;35.25;33.89
20077;BME280;12348;42.710;23.378;2023-07-09T06:38:17;95585.44;;;36.07;34.03
20077;BME280;12348;42.710;23.378;2023-07-09T06:40:44;95583.94;;;36.70;33.06
20077;BME280;12348;42.710;23.378;2023-07-09T06:43:11;95584.72;;;36.71;33.06
20077;BME280;12348;42.710;23.378;2023-07-09T06:45:38;95584.81;;;35.12;36.63
20077;BME280;12348;42.710;23.378;2023-07-09T06:48:05;95581.53;;;37.20;34.06
20077;BME280;12348;42.710;23.378;2023-07-09T06:50:34;95582.47;;;35.11;35.73
20077;BME280;12348;42.710;23.378;2023-07-09T06:53:01;95578.91;;;35.98;36.00
20077;BME280;12348;42.710;23.378;2023-07-09T06:55:28;95589.22;;;37.06;33.32
20077;BME280;12348;42.710;23.378;2023-07-09T06:57:55;95581.72;;;37.51;33.07
20077;BME280;12348;42.710;23.378;2023-07-09T07:00:22;95585.88;;;36.73;33.92
20077;BME280;12348;42.710;23.378;2023-07-09T07:02:49;95582.03;;;36.67;33.78
20077;BME280;12348;42.710;23.378;2023-07-09T07:05:16;95577.47;;;37.33;32.91
20077;BME280;12348;42.710;23.378;2023-07-09T07:07:45;95580.81;;;36.55;33.86
20077;BME280;12348;42.710;23.378;2023-07-09T07:10:11;95578.03;;;35.72;34.44
20077;BME280;12348;42.710;23.378;2023-07-09T07:12:44;95581.47;;;36.85;33.51
20077;BME280;12348;42.710;23.378;2023-07-09T07:15:13;95582.59;;;34.87;35.89
20077;BME280;12348;42.710;23.378;2023-07-09T07:17:40;95572.66;;;35.48;34.34
20077;BME280;12348;42.710;23.378;2023-07-09T07:20:08;95573.41;;;36.49;32.79
20077;BME280;12348;42.710;23.378;2023-07-09T07:22:37;95574.41;;;36.55;32.75
20077;BME280;12348;42.710;23.378;2023-07-09T07:25:07;95571.53;;;38.10;30.21
20077;BME280;12348;42.710;23.378;2023-07-09T07:27:35;95567.63;;;39.19;29.53
20077;BME280;12348;42.710;23.378;2023-07-09T07:30:03;95566.13;;;39.37;29.41
20077;BME280;12348;42.710;23.378;2023-07-09T07:32:30;95565.41;;;38.65;29.68
20077;BME280;12348;42.710;23.378;2023-07-09T07:34:57;95556.97;;;37.46;31.87
20077;BME280;12348;42.710;23.378;2023-07-09T07:37:24;95556.22;;;37.32;32.17
20077;BME280;12348;42.710;23.378;2023-07-09T07:39:50;95559.56;;;38.90;30.12
20077;BME280;12348;42.710;23.378;2023-07-09T07:42:18;95559.03;;;39.32;29.24
20077;BME280;12348;42.710;23.378;2023-07-09T07:44:46;95552.00;;;38.78;30.35
20077;BME280;12348;42.710;23.378;2023-07-09T07:47:12;95551.38;;;37.68;32.15
20077;BME280;12348;42.710;23.378;2023-07-09T07:49:39;95554.28;;;38.30;30.83
20077;BME280;12348;42.710;23.378;2023-07-09T07:52:07;95556.97;;;38.33;29.71
20077;BME280;12348;42.710;23.378;2023-07-09T07:54:34;95554.97;;;38.12;29.77
20077;BME280;12348;42.710;23.378;2023-07-09T07:57:00;95551.66;;;38.67;29.54
20077;BME280;12348;42.710;23.378;2023-07-09T07:59:29;95560.47;;;39.55;28.08
20077;BME280;12348;42.710;23.378;2023-07-09T08:01:58;95553.59;;;39.74;27.96
20077;BME280;12348;42.710;23.378;2023-07-09T08:04:24;95552.16;;;37.33;31.15
20077;BME280;12348;42.710;23.378;2023-07-09T08:06:51;95551.59;;;38.98;29.28
20077;BME280;12348;42.710;23.378;2023-07-09T08:09:19;95544.00;;;38.76;29.77
20077;BME280;12348;42.710;23.378;2023-07-09T08:11:46;95538.44;;;37.70;30.37
20077;BME280;12348;42.710;23.378;2023-07-09T08:14:14;95539.75;;;37.78;31.16
20077;BME280;12348;42.710;23.378;2023-07-09T08:16:43;95543.00;;;37.55;30.18
20077;BME280;12348;42.710;23.378;2023-07-09T08:19:10;95536.88;;;37.69;29.96
20077;BME280;12348;42.710;23.378;2023-07-09T08:21:37;95535.13;;;36.55;31.41
20077;BME280;12348;42.710;23.378;2023-07-09T08:24:04;95531.03;;;37.42;30.52
20077;BME280;12348;42.710;23.378;2023-07-09T08:26:31;95526.41;;;35.27;34.04
20077;BME280;12348;42.710;23.378;2023-07-09T08:28:58;95523.22;;;36.51;32.08
20077;BME280;12348;42.710;23.378;2023-07-09T08:31:25;95528.28;;;36.56;31.47
20077;BME280;12348;42.710;23.378;2023-07-09T08:33:53;95530.00;;;37.01;30.94
20077;BME280;12348;42.710;23.378;2023-07-09T08:36:20;95527.28;;;35.24;34.05
20077;BME280;12348;42.710;23.378;2023-07-09T08:38:47;95529.31;;;35.94;32.87
20077;BME280;12348;42.710;23.378;2023-07-09T08:41:24;95528.38;;;37.60;32.26
20077;BME280;12348;42.710;23.378;2023-07-09T08:44:02;95525.50;;;37.73;31.21
20077;BME280;12348;42.710;23.378;2023-07-09T08:46:41;95527.72;;;37.56;31.95
20077;BME280;12348;42.710;23.378;2023-07-09T08:49:18;95525.91;;;36.80;32.61
20077;BME280;12348;42.710;23.378;2023-07-09T08:51:48;95531.56;;;37.15;31.89
20077;BME280;12348;42.710;23.378;2023-07-09T08:54:22;95523.38;;;37.64;31.84
20077;BME280;12348;42.710;23.378;2023-07-09T08:56:51;95530.16;;;38.20;31.49
20077;BME280;12348;42.710;23.378;2023-07-09T08:59:19;95533.53;;;37.83;31.32
20077;BME280;12348;42.710;23.378;2023-07-09T09:01:50;95523.22;;;36.38;32.96
20077;BME280;12348;42.710;23.378;2023-07-09T09:04:23;95523.06;;;37.05;33.29
20077;BME280;12348;42.710;23.378;2023-07-09T09:06:56;95524.75;;;35.13;36.72
20077;BME280;12348;42.710;23.378;2023-07-09T09:09:30;95523.59;;;35.85;34.90
20077;BME280;12348;42.710;23.378;2023-07-09T09:12:08;95529.41;;;34.87;36.56
20077;BME280;12348;42.710;23.378;2023-07-09T09:14:38;95528.56;;;35.52;34.79
20077;BME280;12348;42.710;23.378;2023-07-09T09:17:11;95520.72;;;35.60;35.90
20077;BME280;12348;42.710;23.378;2023-07-09T09:19:45;95524.91;;;35.68;34.92
20077;BME280;12348;42.710;23.378;2023-07-09T09:22:16;95520.19;;;35.65;34.38
20077;BME280;12348;42.710;23.378;2023-07-09T09:24:54;95522.50;;;35.54;35.40
20077;BME280;12348;42.710;23.378;2023-07-09T09:27:23;95510.97;;;35.35;35.50
20077;BME280;12348;42.710;23.378;2023-07-09T09:29:50;95513.56;;;36.01;35.00
20077;BME280;12348;42.710;23.378;2023-07-09T09:32:21;95514.00;;;35.70;34.78
20077;BME280;12348;42.710;23.378;2023-07-09T09:34:50;95513.38;;;35.79;34.94
20077;BME280;12348;42.710;23.378;2023-07-09T09:37:25;95518.19;;;35.20;35.97
20077;BME280;12348;42.710;23.378;2023-07-09T09:39:52;95518.81;;;35.99;34.66
20077;BME280;12348;42.710;23.378;2023-07-09T09:42:19;95504.75;;;35.15;36.67
20077;BME280;12348;42.710;23.378;2023-07-09T09:44:46;95508.00;;;35.84;34.35
20077;BME280;12348;42.710;23.378;2023-07-09T09:47:13;95502.47;;;36.23;34.47
20077;BME280;12348;42.710;23.378;2023-07-09T09:49:40;95502.66;;;36.03;34.55
20077;BME280;12348;42.710;23.378;2023-07-09T09:52:12;95500.09;;;36.21;34.40
20077;BME280;12348;42.710;23.378;2023-07-09T09:54:41;95491.28;;;36.96;32.62
20077;BME280;12348;42.710;23.378;2023-07-09T09:59:44;95498.75;;;36.38;34.17
20077;BME280;12348;42.710;23.378;2023-07-09T10:02:16;95507.00;;;35.20;35.05
20077;BME280;12348;42.710;23.378;2023-07-09T10:04:45;95501.59;;;35.42;34.96
20077;BME280;12348;42.710;23.378;2023-07-09T10:07:22;95502.09;;;34.10;37.67
20077;BME280;12348;42.710;23.378;2023-07-09T10:09:52;95491.38;;;35.64;35.77
20077;BME280;12348;42.710;23.378;2023-07-09T10:12:34;95487.53;;;36.13;33.56
20077;BME280;12348;42.710;23.378;2023-07-09T10:15:15;95491.78;;;37.16;32.59
20077;BME280;12348;42.710;23.378;2023-07-09T10:17:49;95494.34;;;36.63;32.57
20077;BME280;12348;42.710;23.378;2023-07-09T10:20:24;95485.91;;;35.44;34.49
20077;BME280;12348;42.710;23.378;2023-07-09T10:22:55;95487.09;;;36.27;33.34
20077;BME280;12348;42.710;23.378;2023-07-09T10:25:33;95488.66;;;35.61;34.02
20077;BME280;12348;42.710;23.378;2023-07-09T10:28:17;95491.56;;;35.57;34.62
20077;BME280;12348;42.710;23.378;2023-07-09T10:30:52;95487.59;;;35.84;32.40
20077;BME280;12348;42.710;23.378;2023-07-09T10:33:25;95483.13;;;35.44;33.92
20077;BME280;12348;42.710;23.378;2023-07-09T10:35:59;95475.53;;;34.34;35.76
20077;BME280;12348;42.710;23.378;2023-07-09T10:38:42;95474.56;;;34.90;34.92
20077;BME280;12348;42.710;23.378;2023-07-09T10:41:13;95481.66;;;34.45;35.53
20077;BME280;12348;42.710;23.378;2023-07-09T10:43:44;95472.91;;;34.92;34.26
20077;BME280;12348;42.710;23.378;2023-07-09T10:46:14;95474.31;;;34.84;33.70
20077;BME280;12348;42.710;23.378;2023-07-09T10:48:44;95473.13;;;34.36;34.85
20077;BME280;12348;42.710;23.378;2023-07-09T10:51:18;95470.31;;;33.64;35.96
20077;BME280;12348;42.710;23.378;2023-07-09T10:53:50;95460.31;;;32.59;38.15
20077;BME280;12348;42.710;23.378;2023-07-09T10:56:22;95474.75;;;33.01;36.96
20077;BME280;12348;42.710;23.378;2023-07-09T10:58:53;95466.25;;;32.85;37.03
20077;BME280;12348;42.710;23.378;2023-07-09T11:01:29;95465.97;;;32.79;36.86
20077;BME280;12348;42.710;23.378;2023-07-09T11:04:01;95453.78;;;32.46;38.94
20077;BME280;12348;42.710;23.378;2023-07-09T11:06:33;95458.66;;;32.42;37.00
20077;BME280;12348;42.710;23.378;2023-07-09T11:09:05;95459.66;;;32.01;39.78
20077;BME280;12348;42.710;23.378;2023-07-09T11:11:40;95468.22;;;31.56;41.08
20077;BME280;12348;42.710;23.378;2023-07-09T11:14:16;95462.00;;;31.11;41.05
20077;BME280;12348;42.710;23.378;2023-07-09T11:16:46;95463.34;;;31.33;42.24
20077;BME280;12348;42.710;23.378;2023-07-09T11:19:16;95463.06;;;30.83;43.67
20077;BME280;12348;42.710;23.378;2023-07-09T11:21:58;95465.19;;;30.68;42.52
20077;BME280;12348;42.710;23.378;2023-07-09T11:24:33;95462.66;;;30.84;43.56
20077;BME280;12348;42.710;23.378;2023-07-09T11:27:00;95468.75;;;30.24;44.28
20077;BME280;12348;42.710;23.378;2023-07-09T11:29:27;95458.63;;;30.48;43.91
20077;BME280;12348;42.710;23.378;2023-07-09T11:31:55;95456.81;;;30.27;46.02
20077;BME280;12348;42.710;23.378;2023-07-09T11:34:28;95455.66;;;30.21;44.52
20077;BME280;12348;42.710;23.378;2023-07-09T11:36:58;95453.91;;;30.41;45.66
20077;BME280;12348;42.710;23.378;2023-07-09T11:39:29;95450.19;;;30.55;44.56
20077;BME280;12348;42.710;23.378;2023-07-09T11:41:58;95446.09;;;30.70;43.47
20077;BME280;12348;42.710;23.378;2023-07-09T11:44:26;95444.94;;;30.67;42.95
20077;BME280;12348;42.710;23.378;2023-07-09T11:47:08;95446.84;;;30.33;43.96
20077;BME280;12348;42.710;23.378;2023-07-09T11:49:49;95441.78;;;30.13;45.74
20077;BME280;12348;42.710;23.378;2023-07-09T11:52:21;95438.97;;;30.24;44.51
20077;BME280;12348;42.710;23.378;2023-07-09T11:54:49;95438.44;;;30.40;46.04
20077;BME280;12348;42.710;23.378;2023-07-09T11:57:18;95436.38;;;30.48;49.64
20077;BME280;12348;42.710;23.378;2023-07-09T11:59:45;95435.75;;;29.74;50.02
20077;BME280;12348;42.710;23.378;2023-07-09T12:02:16;95444.16;;;29.59;50.04
20077;BME280;12348;42.710;23.378;2023-07-09T12:04:43;95440.19;;;29.60;51.36
20077;BME280;12348;42.710;23.378;2023-07-09T12:07:13;95430.63;;;29.65;48.94
20077;BME280;12348;42.710;23.378;2023-07-09T12:09:46;95430.94;;;29.81;47.35
20077;BME280;12348;42.710;23.378;2023-07-09T12:12:21;95435.53;;;29.39;48.47
20077;BME280;12348;42.710;23.378;2023-07-09T12:14:49;95437.13;;;29.30;49.70
20077;BME280;12348;42.710;23.378;2023-07-09T12:17:17;95425.63;;;29.28;50.71
20077;BME280;12348;42.710;23.378;2023-07-09T12:19:44;95423.56;;;29.46;52.93
20077;BME280;12348;42.710;23.378;2023-07-09T12:22:16;95422.09;;;29.23;57.12
20077;BME280;12348;42.710;23.378;2023-07-09T12:24:44;95424.59;;;28.86;54.69
20077;BME280;12348;42.710;23.378;2023-07-09T12:27:22;95432.41;;;29.23;51.99
20077;BME280;12348;42.710;23.378;2023-07-09T12:29:53;95428.47;;;29.20;52.67
20077;BME280;12348;42.710;23.378;2023-07-09T12:32:20;95429.13;;;29.42;50.95
20077;BME280;12348;42.710;23.378;2023-07-09T12:34:50;95426.00;;;29.40;52.15
20077;BME280;12348;42.710;23.378;2023-07-09T12:37:19;95419.31;;;29.27;51.67
20077;BME280;12348;42.710;23.378;2023-07-09T12:39:49;95429.56;;;29.37;53.32
20077;BME280;12348;42.710;23.378;2023-07-09T12:42:18;95428.53;;;29.06;53.85
20077;BME280;12348;42.710;23.378;2023-07-09T12:44:47;95420.25;;;28.85;53.60
20077;BME280;12348;42.710;23.378;2023-07-09T12:47:16;95407.94;;;28.89;51.78
20077;BME280;12348;42.710;23.378;2023-07-09T12:49:45;95410.69;;;29.07;52.14
20077;BME280;12348;42.710;23.378;2023-07-09T12:52:17;95406.28;;;29.20;54.61
20077;BME280;12348;42.710;23.378;2023-07-09T12:54:52;95411.88;;;29.06;57.03
20077;BME280;12348;42.710;23.378;2023-07-09T12:57:22;95415.03;;;28.97;53.86
20077;BME280;12348;42.710;23.378;2023-07-09T12:59:54;95408.34;;;29.02;55.23